Time;durP1;ratioP1;P1;durP2;ratioP2;P2;SDS_P1;SDS_P2;PMS_P1;PMS_P2;Temp;Humidity;BMP_temperature;BMP_pressure;BME280_temperature;BME280_humidity;BME280_pressure;Samples;Min_cycle;Max_cycle;Signal;HPM_P1;HPM_P2
2021/05/10 00:00:53;;;;;;;7.40;5.07;;;19.00;71.10;;;;;;5090667;28;20461;-86
2021/05/10 00:03:20;;;;;;;8.70;5.85;;;19.00;72.40;;;;;;5083370;28;20025;-85
2021/05/10 00:05:47;;;;;;;7.38;5.25;;;18.90;72.90;;;;;;5076022;28;20048;-87
2021/05/10 00:08:13;;;;;;;7.55;4.38;;;19.00;73.00;;;;;;5075828;28;20464;-85
2021/05/10 00:10:39;;;;;;;8.38;4.28;;;18.90;72.30;;;;;;5079679;28;20008;-85
2021/05/10 00:13:06;;;;;;;7.97;5.07;;;18.90;71.80;;;;;;5082016;28;20021;-86
2021/05/10 00:15:32;;;;;;;6.75;4.85;;;18.90;72.20;;;;;;5074760;28;20496;-86
2021/05/10 00:18:04;;;;;;;8.10;6.18;;;18.90;70.50;;;;;;5075483;28;20047;-86
2021/05/10 00:20:30;;;;;;;7.97;5.47;;;18.90;71.30;;;;;;5077703;28;20092;-87
2021/05/10 00:22:57;;;;;;;10.23;6.78;;;18.90;70.60;;;;;;5076781;28;20060;-85
2021/05/10 00:25:24;;;;;;;10.15;5.15;;;18.80;70.90;;;;;;5074257;28;20097;-86
2021/05/10 00:27:50;;;;;;;10.90;8.30;;;18.90;72.10;;;;;;5074977;28;20021;-86
2021/05/10 00:30:16;;;;;;;9.65;6.43;;;18.90;72.00;;;;;;5078703;28;20357;-86
2021/05/10 00:32:42;;;;;;;6.00;4.20;;;18.90;72.60;;;;;;5082311;28;20035;-86
2021/05/10 00:35:08;;;;;;;8.13;6.57;;;18.90;71.40;;;;;;5088050;28;20036;-86
2021/05/10 00:37:34;;;;;;;8.10;6.15;;;18.80;72.20;;;;;;5094413;28;20016;-84
2021/05/10 00:39:59;;;;;;;8.05;4.95;;;18.80;71.70;;;;;;5094654;28;20051;-85
2021/05/10 00:42:25;;;;;;;6.03;3.40;;;18.80;71.10;;;;;;5088521;28;20020;-86
2021/05/10 00:44:51;;;;;;;11.10;7.30;;;18.80;69.00;;;;;;5094172;28;20047;-85
2021/05/10 00:47:16;;;;;;;10.77;7.22;;;18.80;71.50;;;;;;5082213;28;20028;-84
2021/05/10 00:49:42;;;;;;;9.60;6.00;;;18.80;72.00;;;;;;5088894;28;20109;-85
2021/05/10 00:52:07;;;;;;;13.25;7.10;;;18.80;71.80;;;;;;5077584;28;20048;-88
2021/05/10 00:54:34;;;;;;;9.95;8.10;;;18.80;72.10;;;;;;5077328;28;20029;-84
2021/05/10 00:57:00;;;;;;;9.80;6.45;;;18.80;72.70;;;;;;5076702;28;20021;-86
2021/05/10 00:59:25;;;;;;;9.20;6.80;;;18.80;72.70;;;;;;5076303;28;20025;-86
2021/05/10 01:01:53;;;;;;;7.88;5.60;;;18.80;72.50;;;;;;5075936;28;20029;-87
2021/05/10 01:04:18;;;;;;;9.80;7.03;;;18.80;72.20;;;;;;5076021;28;20025;-86
2021/05/10 01:06:44;;;;;;;9.15;5.85;;;18.80;72.80;;;;;;5075379;28;20039;-87
2021/05/10 01:09:10;;;;;;;9.10;6.50;;;18.80;73.20;;;;;;5076350;28;20039;-86
2021/05/10 01:11:36;;;;;;;9.82;5.65;;;18.80;74.20;;;;;;5077185;28;20033;-87
2021/05/10 01:14:02;;;;;;;10.23;5.97;;;18.80;73.20;;;;;;5078787;28;20495;-86
2021/05/10 01:16:28;;;;;;;7.47;5.28;;;18.80;73.70;;;;;;5098094;28;20084;-87
2021/05/10 01:18:54;;;;;;;6.18;5.07;;;18.70;74.00;;;;;;5098754;28;20488;-87
2021/05/10 01:21:20;;;;;;;8.45;6.53;;;18.70;73.80;;;;;;5084800;28;20029;-87
2021/05/10 01:23:47;;;;;;;8.93;5.45;;;18.70;74.40;;;;;;5092053;28;20089;-86
2021/05/10 01:26:14;;;;;;;8.93;5.32;;;18.70;73.40;;;;;;5098431;28;20016;-86
2021/05/10 01:28:40;;;;;;;7.85;5.25;;;18.70;73.40;;;;;;5097276;28;20031;-87
2021/05/10 01:31:06;;;;;;;9.15;4.45;;;18.70;73.40;;;;;;5098943;28;20009;-86
2021/05/10 01:33:32;;;;;;;9.32;6.28;;;18.80;72.90;;;;;;5096761;28;20058;-87
2021/05/10 01:35:58;;;;;;;7.65;5.13;;;18.70;72.60;;;;;;5079209;28;20409;-88
2021/05/10 01:38:23;;;;;;;10.27;5.82;;;18.70;72.90;;;;;;5076187;28;20027;-86
2021/05/10 01:40:49;;;;;;;8.05;4.85;;;18.70;72.90;;;;;;5076310;28;20119;-87
2021/05/10 01:43:17;;;;;;;7.70;5.10;;;18.70;72.80;;;;;;5075956;28;20066;-87
2021/05/10 01:45:44;;;;;;;7.47;4.60;;;18.70;72.90;;;;;;5076620;28;20047;-87
2021/05/10 01:48:12;;;;;;;7.28;5.28;;;18.70;72.70;;;;;;5075590;28;20035;-86
2021/05/10 01:50:40;;;;;;;8.88;4.50;;;18.60;72.30;;;;;;5075344;28;20055;-87
2021/05/10 01:53:07;;;;;;;6.95;4.95;;;18.70;72.20;;;;;;5075317;28;20123;-87
2021/05/10 01:55:33;;;;;;;8.30;4.88;;;18.60;72.20;;;;;;5075491;28;20032;-87
2021/05/10 01:58:00;;;;;;;9.55;5.03;;;18.60;72.80;;;;;;5077850;28;20036;-86
2021/05/10 02:00:30;;;;;;;7.78;5.53;;;18.60;73.10;;;;;;5084456;28;20020;-86
2021/05/10 02:03:00;;;;;;;7.38;5.03;;;18.60;73.50;;;;;;5096431;28;20040;-88
2021/05/10 02:05:26;;;;;;;8.52;4.78;;;18.50;74.00;;;;;;5096755;28;20013;-86
2021/05/10 02:07:54;;;;;;;7.22;4.75;;;18.50;74.30;;;;;;5084167;28;20414;-87
2021/05/10 02:10:30;;;;;;;6.55;4.38;;;18.50;73.90;;;;;;5080581;28;20097;-87
2021/05/10 02:13:00;;;;;;;8.40;5.45;;;18.40;73.50;;;;;;5079680;28;20020;-88
2021/05/10 02:15:28;;;;;;;7.88;5.07;;;18.40;73.30;;;;;;5076765;28;20464;-87
2021/05/10 02:17:54;;;;;;;7.40;4.18;;;18.40;73.50;;;;;;5075520;28;20047;-86
2021/05/10 02:20:22;;;;;;;8.98;5.28;;;18.40;73.20;;;;;;5074775;28;20031;-86
2021/05/10 02:22:55;;;;;;;11.25;4.57;;;18.40;74.20;;;;;;5074956;28;20024;-87
2021/05/10 02:25:23;;;;;;;7.57;4.43;;;18.40;74.40;;;;;;5074994;28;20048;-87
2021/05/10 02:27:51;;;;;;;6.80;5.22;;;18.30;74.90;;;;;;5074868;28;20103;-87
2021/05/10 02:30:17;;;;;;;7.65;4.63;;;18.30;74.50;;;;;;5074540;28;20029;-87
2021/05/10 02:32:43;;;;;;;5.57;3.65;;;18.30;74.50;;;;;;5076981;28;20012;-85
2021/05/10 02:35:10;;;;;;;5.70;3.85;;;18.20;74.50;;;;;;5077666;28;20055;-89
2021/05/10 02:37:36;;;;;;;7.13;4.50;;;18.20;74.50;;;;;;5076636;28;20098;-86
2021/05/10 02:40:02;;;;;;;8.75;4.95;;;18.20;75.00;;;;;;5084697;28;20464;-86
2021/05/10 02:42:28;;;;;;;8.77;5.40;;;18.20;75.40;;;;;;5075090;28;20020;-86
2021/05/10 02:44:53;;;;;;;6.68;4.40;;;18.10;75.20;;;;;;5074724;28;20020;-86
2021/05/10 02:47:19;;;;;;;7.85;4.53;;;18.10;75.30;;;;;;5074169;28;20464;-86
2021/05/10 02:49:44;;;;;;;6.22;4.28;;;18.10;75.70;;;;;;5074188;28;20112;-86
2021/05/10 02:52:10;;;;;;;6.53;4.28;;;18.10;75.70;;;;;;5073604;28;20350;-86
2021/05/10 02:54:36;;;;;;;8.02;4.18;;;18.10;75.80;;;;;;5073307;28;20036;-86
2021/05/10 02:57:01;;;;;;;5.85;3.85;;;18.10;75.80;;;;;;5073702;28;20028;-86
2021/05/10 02:59:27;;;;;;;7.43;4.28;;;18.00;75.10;;;;;;5074794;28;20082;-86
2021/05/10 03:01:53;;;;;;;7.38;3.70;;;18.00;75.20;;;;;;5076323;28;20052;-87
2021/05/10 03:04:19;;;;;;;6.85;3.80;;;18.10;74.30;;;;;;5076111;28;20021;-87
2021/05/10 03:06:44;;;;;;;5.93;3.13;;;18.10;73.60;;;;;;5076180;28;20021;-86
2021/05/10 03:09:10;;;;;;;5.57;3.20;;;18.10;73.30;;;;;;5091390;28;20033;-86
2021/05/10 03:11:35;;;;;;;6.32;3.80;;;18.10;72.90;;;;;;5096669;28;20027;-86
2021/05/10 03:14:01;;;;;;;9.10;3.58;;;18.10;72.30;;;;;;5084373;28;20144;-86
2021/05/10 03:16:27;;;;;;;4.15;2.47;;;18.10;72.00;;;;;;5085818;28;20133;-86
2021/05/10 03:18:52;;;;;;;6.97;2.72;;;18.20;71.20;;;;;;5073221;28;20012;-86
2021/05/10 03:21:18;;;;;;;6.10;3.13;;;18.20;70.00;;;;;;5074895;28;20065;-86
2021/05/10 03:23:44;;;;;;;3.38;2.00;;;18.20;69.20;;;;;;5074126;28;20039;-85
2021/05/10 03:26:09;;;;;;;7.30;2.40;;;18.30;68.40;;;;;;5077481;28;20025;-82
2021/05/10 03:28:38;;;;;;;4.78;1.98;;;18.30;68.70;;;;;;5094410;28;20008;-82
2021/05/10 03:31:04;;;;;;;3.70;1.70;;;18.40;67.90;;;;;;5092475;28;20033;-82
2021/05/10 03:33:37;;;;;;;3.28;1.65;;;18.40;67.60;;;;;;5096585;28;20078;-82
2021/05/10 03:36:09;;;;;;;4.45;1.88;;;18.40;66.60;;;;;;5090379;28;20005;-83
2021/05/10 03:38:34;;;;;;;3.97;1.48;;;18.50;66.20;;;;;;5077213;28;20020;-82
2021/05/10 03:41:00;;;;;;;7.95;1.70;;;18.50;65.80;;;;;;5072688;28;20027;-83
2021/05/10 03:43:26;;;;;;;7.35;1.60;;;18.60;65.90;;;;;;5072882;28;20118;-84
2021/05/10 03:45:51;;;;;;;5.57;1.45;;;18.60;65.80;;;;;;5073143;28;20043;-84
2021/05/10 03:48:17;;;;;;;4.45;1.63;;;18.60;65.50;;;;;;5073246;28;20017;-84
2021/05/10 03:50:42;;;;;;;4.60;1.65;;;18.60;65.40;;;;;;5073961;28;20031;-82
2021/05/10 03:53:08;;;;;;;4.75;1.80;;;18.60;65.10;;;;;;5082573;28;20027;-82
2021/05/10 03:55:34;;;;;;;3.67;1.45;;;18.60;65.10;;;;;;5073521;28;20370;-82
2021/05/10 03:57:59;;;;;;;4.65;1.52;;;18.70;64.50;;;;;;5072304;28;20040;-83
2021/05/10 04:00:25;;;;;;;5.75;1.52;;;18.70;64.30;;;;;;5072886;28;20032;-84
2021/05/10 04:02:51;;;;;;;7.30;1.60;;;18.70;64.00;;;;;;5074274;28;20115;-83
2021/05/10 04:16:08;;;;;;;4.95;1.73;;;19.00;61.60;;;;;;5061878;28;20036;-86
2021/05/10 04:18:34;;;;;;;5.80;1.33;;;19.10;61.50;;;;;;5085157;28;20116;-88
2021/05/10 04:21:00;;;;;;;5.68;1.35;;;19.20;61.10;;;;;;5081832;28;20024;-86
2021/05/10 04:23:27;;;;;;;3.13;1.10;;;19.30;61.00;;;;;;5078840;28;20460;-84
2021/05/10 04:25:54;;;;;;;4.13;1.40;;;19.30;60.10;;;;;;5076349;28;20073;-83
2021/05/10 04:28:23;;;;;;;4.50;1.10;;;19.40;59.90;;;;;;5080064;28;20082;-82
2021/05/10 04:30:51;;;;;;;2.92;1.27;;;19.50;60.60;;;;;;5083869;28;20021;-85
2021/05/10 04:33:25;;;;;;;4.78;1.25;;;19.50;60.90;;;;;;5080583;28;20431;-88
2021/05/10 04:35:51;;;;;;;5.18;1.45;;;19.60;59.10;;;;;;5080097;28;20473;-89
2021/05/10 04:38:17;;;;;;;7.15;1.20;;;19.60;59.30;;;;;;5078514;28;20024;-87
2021/05/10 04:40:42;;;;;;;5.18;1.50;;;19.70;57.30;;;;;;5078741;28;20131;-87
2021/05/10 04:43:08;;;;;;;4.10;1.10;;;19.80;59.00;;;;;;5077720;28;20020;-85
2021/05/10 04:45:34;;;;;;;4.78;1.40;;;19.80;58.90;;;;;;5077669;28;20032;-87
2021/05/10 04:48:00;;;;;;;5.38;1.70;;;19.90;58.70;;;;;;5077679;28;20028;-87
2021/05/10 04:50:26;;;;;;;3.50;1.33;;;19.90;58.30;;;;;;5076723;28;20024;-87
2021/05/10 04:52:51;;;;;;;4.97;1.52;;;19.90;58.40;;;;;;5077898;28;20019;-88
2021/05/10 04:55:17;;;;;;;6.45;1.38;;;20.00;58.30;;;;;;5077878;28;20043;-86
2021/05/10 04:57:44;;;;;;;4.93;1.60;;;20.00;57.60;;;;;;5078404;28;20047;-87
2021/05/10 05:00:12;;;;;;;4.25;1.50;;;20.00;57.60;;;;;;5086551;28;20037;-87
2021/05/10 05:02:38;;;;;;;5.20;1.40;;;20.00;58.60;;;;;;5099368;28;20005;-86
2021/05/10 05:05:07;;;;;;;3.78;1.02;;;20.10;57.40;;;;;;5099104;28;20139;-86
2021/05/10 05:07:33;;;;;;;3.40;1.40;;;20.10;57.80;;;;;;5085500;28;20380;-87
2021/05/10 05:09:59;;;;;;;8.45;1.50;;;20.00;58.00;;;;;;5076646;28;20025;-88
2021/05/10 05:12:24;;;;;;;4.20;1.40;;;20.00;57.30;;;;;;5077378;28;20027;-88
2021/05/10 05:14:50;;;;;;;6.15;1.15;;;20.00;58.00;;;;;;5077425;28;20441;-88
2021/05/10 05:17:16;;;;;;;5.53;1.30;;;20.00;57.90;;;;;;5080815;28;20031;-87
2021/05/10 05:19:42;;;;;;;6.28;1.40;;;20.00;58.40;;;;;;5076892;28;20017;-88
2021/05/10 05:22:08;;;;;;;5.40;1.40;;;19.90;58.00;;;;;;5076991;28;20023;-88
2021/05/10 05:24:35;;;;;;;10.57;1.83;;;19.90;58.20;;;;;;5077276;28;20020;-89
2021/05/10 05:27:01;;;;;;;3.17;1.30;;;19.90;58.80;;;;;;5077567;28;20085;-89
2021/05/10 05:29:27;;;;;;;5.78;1.60;;;19.90;59.20;;;;;;5084980;28;20013;-89
2021/05/10 05:31:56;;;;;;;7.18;1.88;;;19.80;59.70;;;;;;5098270;28;20009;-90
2021/05/10 05:34:22;;;;;;;7.90;1.40;;;19.80;60.50;;;;;;5096965;28;20057;-90
2021/05/10 05:36:48;;;;;;;10.07;1.63;;;19.80;60.80;;;;;;5099063;28;20106;-90
2021/05/10 05:39:17;;;;;;;9.13;1.98;;;19.70;61.30;;;;;;5095734;28;20054;-90
2021/05/10 05:41:43;;;;;;;5.63;1.55;;;19.60;61.70;;;;;;5083769;28;20096;-86
2021/05/10 05:44:09;;;;;;;6.85;1.38;;;19.50;61.90;;;;;;5082424;28;20057;-86
2021/05/10 05:46:42;;;;;;;4.55;1.48;;;19.50;61.90;;;;;;5080289;28;20025;-88
2021/05/10 05:49:07;;;;;;;5.57;1.30;;;19.40;63.20;;;;;;5078271;28;20021;-88
2021/05/10 05:52:00;;;;;;;;;;;;;;;;;;;;;
2021/05/10 05:54:26;;;;;;;3.38;1.25;;;19.30;63.20;;;;;;5080728;28;20031;-86
2021/05/10 05:56:54;;;;;;;9.43;1.60;;;19.30;63.50;;;;;;5077842;28;20453;-87
2021/05/10 05:59:20;;;;;;;5.63;1.52;;;19.20;63.70;;;;;;5078927;28;20032;-86
2021/05/10 06:01:47;;;;;;;5.80;1.23;;;19.10;64.40;;;;;;5077704;28;20020;-87
2021/05/10 06:04:12;;;;;;;11.20;1.60;;;19.10;64.60;;;;;;5078059;28;20388;-88
2021/05/10 06:06:38;;;;;;;3.05;1.15;;;19.10;65.00;;;;;;5080342;28;20029;-88
2021/05/10 06:09:07;;;;;;;4.90;1.20;;;19.10;65.20;;;;;;5080445;28;20025;-84
2021/05/10 06:11:33;;;;;;;3.25;1.20;;;19.00;64.70;;;;;;5083614;28;20035;-85
2021/05/10 06:13:59;;;;;;;3.28;0.95;;;18.90;64.90;;;;;;5088782;28;20399;-87
2021/05/10 06:16:29;;;;;;;4.53;1.20;;;19.00;64.90;;;;;;5095308;28;20029;-86
2021/05/10 06:18:55;;;;;;;2.55;1.00;;;19.00;65.10;;;;;;5096406;28;20021;-87
2021/05/10 06:21:21;;;;;;;4.22;1.00;;;19.00;65.10;;;;;;5088522;28;20075;-86
2021/05/10 06:23:48;;;;;;;4.32;1.10;;;19.00;64.10;;;;;;5081538;28;20028;-88
2021/05/10 06:26:14;;;;;;;7.55;0.85;;;19.10;64.20;;;;;;5081644;28;20078;-88
2021/05/10 06:28:40;;;;;;;1.88;0.60;;;19.30;63.80;;;;;;5085039;28;20025;-92
2021/05/10 06:31:07;;;;;;;3.05;0.90;;;19.40;62.70;;;;;;5086005;28;20067;-88
2021/05/10 06:33:34;;;;;;;3.33;0.40;;;19.30;62.30;;;;;;5085580;28;20044;-89
2021/05/10 06:36:02;;;;;;;1.45;0.60;;;19.20;62.70;;;;;;5082364;28;20039;-85
2021/05/10 06:38:28;;;;;;;0.75;0.30;;;19.10;62.40;;;;;;5083472;28;20044;-84
2021/05/10 06:40:53;;;;;;;1.23;0.47;;;19.10;62.60;;;;;;5081108;28;20032;-82
2021/05/10 06:43:22;;;;;;;1.63;0.40;;;19.00;62.90;;;;;;5082681;28;20021;-87
2021/05/10 06:45:47;;;;;;;4.85;0.43;;;19.00;63.30;;;;;;5085043;28;20480;-86
2021/05/10 06:48:28;;;;;;;2.85;0.95;;;19.00;63.10;;;;;;5085371;28;20058;-86
2021/05/10 06:50:54;;;;;;;2.17;0.40;;;19.10;63.30;;;;;;5090458;28;20016;-85
2021/05/10 06:53:22;;;;;;;2.00;0.50;;;19.10;63.30;;;;;;5096538;28;20028;-86
2021/05/10 06:55:48;;;;;;;4.35;0.43;;;19.10;63.30;;;;;;5092321;28;20115;-86
2021/05/10 06:58:13;;;;;;;1.63;0.50;;;19.10;63.30;;;;;;5090094;28;20033;-86
2021/05/10 07:00:53;;;;;;;2.58;0.50;;;19.10;63.10;;;;;;5088058;28;20084;-85
2021/05/10 07:03:19;;;;;;;6.03;0.50;;;19.10;62.90;;;;;;5087532;28;20063;-85
2021/05/10 07:05:45;;;;;;;1.85;0.50;;;19.10;63.10;;;;;;5092657;28;20021;-85
2021/05/10 07:08:13;;;;;;;3.13;0.70;;;19.10;63.00;;;;;;5094290;28;20025;-86
2021/05/10 07:10:39;;;;;;;2.35;0.60;;;19.10;62.80;;;;;;5093630;28;20016;-86
2021/05/10 07:13:05;;;;;;;1.95;0.73;;;19.00;63.40;;;;;;5095566;28;20020;-87
2021/05/10 07:15:32;;;;;;;0.50;0.40;;;19.00;63.60;;;;;;5088256;28;20093;-87
2021/05/10 07:18:14;;;;;;;2.10;0.77;;;19.00;63.90;;;;;;5086849;28;20104;-85
2021/05/10 07:20:42;;;;;;;1.90;0.52;;;19.10;64.10;;;;;;5080496;28;20024;-87
2021/05/10 07:23:09;;;;;;;3.97;0.82;;;19.10;64.10;;;;;;5074321;28;20461;-87
2021/05/10 07:25:41;;;;;;;2.78;0.45;;;19.10;64.00;;;;;;5074741;28;20166;-85
2021/05/10 07:28:08;;;;;;;2.50;0.60;;;19.00;64.10;;;;;;5076953;28;20032;-86
2021/05/10 07:30:33;;;;;;;2.75;0.82;;;19.00;64.10;;;;;;5090734;28;20084;-85
2021/05/10 07:32:59;;;;;;;2.53;1.00;;;19.00;63.70;;;;;;5094769;28;20054;-86
2021/05/10 07:35:25;;;;;;;1.98;0.90;;;19.00;63.30;;;;;;5082675;28;20300;-87
2021/05/10 07:37:50;;;;;;;4.20;1.10;;;19.00;63.60;;;;;;5096243;28;20052;-84
2021/05/10 07:40:22;;;;;;;2.97;1.05;;;19.20;63.20;;;;;;5097059;28;20077;-85
2021/05/10 07:42:48;;;;;;;4.10;0.93;;;19.40;62.30;;;;;;5091155;28;20045;-87
2021/05/10 07:45:13;;;;;;;3.53;0.82;;;19.50;62.30;;;;;;5084098;28;20040;-86
2021/05/10 07:47:39;;;;;;;5.43;1.25;;;19.40;62.30;;;;;;5085568;28;20028;-86
2021/05/10 07:50:05;;;;;;;2.75;0.95;;;19.20;62.40;;;;;;5086237;28;20016;-86
2021/05/10 07:52:31;;;;;;;3.90;1.10;;;19.10;63.40;;;;;;5089536;28;20021;-87
2021/05/10 07:54:57;;;;;;;4.18;1.08;;;19.00;64.00;;;;;;5089534;28;20388;-85
2021/05/10 07:57:25;;;;;;;3.75;1.42;;;19.00;64.10;;;;;;5089917;28;20479;-85
2021/05/10 07:59:51;;;;;;;1.70;0.90;;;18.90;64.60;;;;;;5085891;28;20468;-80
2021/05/10 08:02:19;;;;;;;2.58;1.23;;;18.80;65.10;;;;;;5082193;28;20023;-81
2021/05/10 08:04:45;;;;;;;3.08;1.40;;;18.70;65.30;;;;;;5083699;28;20035;-82
2021/05/10 08:07:12;;;;;;;4.38;1.25;;;18.60;65.80;;;;;;5082836;28;20048;-81
2021/05/10 08:09:39;;;;;;;2.97;1.15;;;18.60;66.00;;;;;;5083504;28;20017;-83
2021/05/10 08:12:06;;;;;;;2.53;1.10;;;18.60;66.30;;;;;;5080371;28;20028;-81
2021/05/10 08:14:32;;;;;;;3.88;1.25;;;18.50;66.30;;;;;;5079868;28;20033;-82
2021/05/10 08:16:59;;;;;;;4.05;1.40;;;18.50;66.40;;;;;;5085755;28;20013;-83
2021/05/10 08:19:26;;;;;;;4.50;1.42;;;18.40;66.80;;;;;;5081616;28;20178;-83
2021/05/10 08:21:52;;;;;;;4.65;1.42;;;18.30;67.20;;;;;;5081048;28;20111;-81
2021/05/10 08:24:18;;;;;;;2.33;1.35;;;18.30;67.40;;;;;;5095584;28;20020;-80
2021/05/10 08:26:44;;;;;;;2.20;1.08;;;18.30;67.40;;;;;;5097124;28;20051;-83
2021/05/10 08:29:10;;;;;;;5.20;1.30;;;18.40;67.40;;;;;;5087336;28;20055;-85
2021/05/10 08:31:35;;;;;;;3.72;1.17;;;18.50;67.30;;;;;;5087448;28;20040;-85
2021/05/10 08:34:01;;;;;;;2.50;1.25;;;18.50;67.00;;;;;;5089905;28;20044;-83
2021/05/10 08:36:26;;;;;;;3.40;1.20;;;18.50;67.00;;;;;;5079484;28;20028;-81
2021/05/10 08:38:54;;;;;;;4.30;1.25;;;18.40;67.30;;;;;;5077500;28;20028;-82
2021/05/10 08:41:20;;;;;;;2.83;0.95;;;18.40;68.40;;;;;;5075078;28;20039;-79
2021/05/10 08:43:45;;;;;;;3.40;1.15;;;18.20;69.80;;;;;;5077894;28;20020;-79
2021/05/10 08:46:14;;;;;;;3.15;1.20;;;17.90;71.10;;;;;;5084255;28;20028;-80
2021/05/10 08:48:39;;;;;;;3.58;1.38;;;17.70;71.80;;;;;;5083532;28;20017;-82
2021/05/10 08:51:05;;;;;;;2.92;1.30;;;17.60;73.30;;;;;;5080461;28;20017;-79
2021/05/10 08:53:38;;;;;;;3.28;1.20;;;17.50;73.50;;;;;;5075703;28;20025;-79
2021/05/10 08:56:05;;;;;;;2.88;1.10;;;17.60;73.70;;;;;;5076899;28;20134;-81
2021/05/10 08:58:57;;;;;;;3.58;1.20;;;17.60;72.80;;;;;;5076094;28;20031;-81
2021/05/10 09:01:23;;;;;;;2.83;1.40;;;17.60;73.10;;;;;;5071025;28;20032;-82
2021/05/10 09:03:50;;;;;;;1.75;0.90;;;17.70;72.90;;;;;;5075824;28;20031;-82
2021/05/10 09:06:19;;;;;;;2.15;1.33;;;17.70;72.60;;;;;;5076693;28;20020;-83
2021/05/10 09:08:46;;;;;;;4.07;1.58;;;17.70;72.40;;;;;;5075916;28;20024;-81
2021/05/10 09:11:14;;;;;;;4.78;1.40;;;17.70;72.10;;;;;;5077499;28;20516;-83
2021/05/10 09:13:43;;;;;;;2.75;1.50;;;17.70;71.90;;;;;;5077202;28;20122;-81
2021/05/10 09:16:10;;;;;;;7.93;1.42;;;17.80;72.00;;;;;;5075503;28;20103;-84
2021/05/10 09:18:36;;;;;;;6.60;1.83;;;17.90;71.00;;;;;;5076250;28;20020;-83
2021/05/10 09:21:17;;;;;;;3.80;1.80;;;17.90;70.60;;;;;;5078001;28;20119;-85
2021/05/10 09:23:42;;;;;;;;;;;17.90;70.50;;;;;;5083146;28;20483;-84
2021/05/10 09:26:11;;;;;;;5.35;1.58;;;17.90;70.20;;;;;;5075844;28;19904;-82
2021/05/10 09:28:44;;;;;;;3.13;1.65;;;17.90;70.30;;;;;;5076534;28;20054;-84
2021/05/10 09:31:12;;;;;;;3.97;1.90;;;17.90;69.80;;;;;;5076796;28;20559;-79
2021/05/10 09:33:46;;;;;;;2.65;1.30;;;17.90;69.70;;;;;;5089019;28;20062;-81
2021/05/10 09:36:31;;;;;;;3.35;1.42;;;17.90;69.60;;;;;;5096849;28;20037;-82
2021/05/10 09:38:56;;;;;;;4.18;1.60;;;18.00;69.30;;;;;;5098361;28;20035;-85
2021/05/10 09:41:22;;;;;;;4.00;1.63;;;18.00;69.30;;;;;;5097849;28;20025;-84
2021/05/10 09:43:58;;;;;;;4.45;1.90;;;18.00;69.50;;;;;;5091833;28;20025;-81
2021/05/10 09:46:37;;;;;;;4.40;1.42;;;18.10;69.40;;;;;;5077843;28;20480;-84
2021/05/10 09:49:03;;;;;;;2.53;1.45;;;18.20;67.90;;;;;;5076787;28;20467;-86
2021/05/10 09:51:29;;;;;;;5.75;1.77;;;18.30;68.20;;;;;;5076226;28;20025;-84
2021/05/10 09:53:56;;;;;;;7.68;1.90;;;18.30;67.60;;;;;;5076532;28;20017;-85
2021/05/10 09:56:32;;;;;;;5.78;1.60;;;18.30;67.80;;;;;;5075683;28;20444;-82
2021/05/10 09:59:03;;;;;;;4.65;1.55;;;18.30;67.60;;;;;;5077620;28;20032;-81
2021/05/10 10:01:43;;;;;;;4.03;1.65;;;18.30;67.70;;;;;;5075836;28;20016;-83
2021/05/10 10:04:11;;;;;;;2.88;1.73;;;18.40;67.60;;;;;;5074903;28;20032;-82
2021/05/10 10:06:36;;;;;;;6.70;1.83;;;18.40;67.50;;;;;;5075912;28;20029;-86
2021/05/10 10:09:03;;;;;;;2.42;1.33;;;18.40;67.70;;;;;;5077947;28;20099;-86
2021/05/10 10:11:29;;;;;;;5.85;1.50;;;18.40;67.60;;;;;;5076402;28;20024;-83
2021/05/10 10:13:56;;;;;;;3.03;1.58;;;18.30;68.00;;;;;;5076128;28;20035;-84
2021/05/10 10:16:30;;;;;;;4.55;2.05;;;18.30;68.50;;;;;;5077138;28;20020;-84
2021/05/10 10:19:04;;;;;;;4.30;2.20;;;18.20;68.80;;;;;;5077318;28;20469;-83
2021/05/10 10:21:31;;;;;;;5.35;2.20;;;18.20;68.70;;;;;;5078942;28;20417;-89
2021/05/10 10:24:05;;;;;;;4.35;2.40;;;18.00;68.90;;;;;;5082790;28;20111;-88
2021/05/10 10:26:33;;;;;;;5.15;2.60;;;17.80;69.60;;;;;;5090200;28;20035;-87
2021/05/10 10:29:05;;;;;;;4.97;3.10;;;17.70;70.40;;;;;;5094059;28;20105;-84
2021/05/10 10:31:35;;;;;;;4.22;2.58;;;17.60;71.10;;;;;;5085773;28;20021;-88
2021/05/10 10:34:06;;;;;;;5.90;3.50;;;17.40;71.80;;;;;;5089796;28;20111;-83
2021/05/10 10:36:42;;;;;;;6.43;3.15;;;17.30;72.90;;;;;;5094646;28;20032;-89
2021/05/10 10:39:22;;;;;;;7.38;4.15;;;17.10;74.30;;;;;;5097467;28;20017;-88
2021/05/10 10:42:21;;;;;;;8.68;5.05;;;17.00;76.40;;;;;;5098083;28;20101;-87
2021/05/10 10:44:55;;;;;;;6.72;4.25;;;16.90;77.30;;;;;;5089645;28;20029;-83
2021/05/10 10:47:44;;;;;;;8.23;4.70;;;16.80;77.60;;;;;;5086395;28;20028;-83
2021/05/10 10:50:16;;;;;;;5.28;3.65;;;16.80;78.90;;;;;;5085903;28;20031;-85
2021/05/10 10:52:58;;;;;;;8.15;4.40;;;16.90;78.00;;;;;;5085896;28;20016;-85
2021/05/10 10:55:31;;;;;;;8.13;4.72;;;16.80;78.80;;;;;;5082738;28;20104;-81
2021/05/10 10:58:15;;;;;;;6.82;4.15;;;16.80;80.00;;;;;;5077301;28;20036;-79
2021/05/10 11:00:56;;;;;;;6.88;4.28;;;16.80;79.30;;;;;;5064245;28;20393;-82
2021/05/10 11:03:26;;;;;;;6.40;4.82;;;16.80;78.90;;;;;;5065488;28;20036;-80
2021/05/10 11:05:53;;;;;;;6.97;4.63;;;16.80;80.70;;;;;;5067104;28;20029;-83
2021/05/10 11:08:37;;;;;;;6.45;4.78;;;16.90;80.00;;;;;;5069460;28;20017;-82
2021/05/10 11:11:03;;;;;;;5.78;4.22;;;16.90;79.60;;;;;;5068077;28;20024;-83
2021/05/10 11:13:31;;;;;;;5.75;4.30;;;16.90;79.50;;;;;;5067989;28;20061;-86
2021/05/10 11:15:57;;;;;;;6.70;4.30;;;17.10;80.30;;;;;;5065874;28;20029;-84
2021/05/10 11:18:52;;;;;;;6.55;4.40;;;17.20;78.70;;;;;;5065276;28;20433;-83
2021/05/10 11:21:21;;;;;;;8.65;6.07;;;17.30;79.90;;;;;;5065572;28;20017;-82
2021/05/10 11:23:53;;;;;;;6.38;4.60;;;17.30;79.20;;;;;;5065018;28;20024;-84
2021/05/10 11:26:51;;;;;;;8.45;5.53;;;17.10;79.90;;;;;;5066208;28;20029;-88
2021/05/10 11:29:26;;;;;;;7.70;6.38;;;16.90;81.20;;;;;;5067009;28;20116;-87
2021/05/10 11:31:53;;;;;;;7.88;6.32;;;16.70;81.80;;;;;;5066082;28;20040;-85
2021/05/10 11:34:35;;;;;;;7.78;6.78;;;16.60;83.10;;;;;;5068487;28;20067;-88
2021/05/10 11:37:05;;;;;;;7.45;5.90;;;16.40;83.90;;;;;;5052390;28;20317;-88
2021/05/10 11:39:36;;;;;;;6.95;4.53;;;16.30;83.70;;;;;;5056581;28;20104;-87
2021/05/10 11:42:06;;;;;;;7.05;4.43;;;16.20;84.30;;;;;;5058090;28;20029;-86
2021/05/10 11:44:39;;;;;;;;;;;16.20;84.00;;;;;;5056466;28;20030;-86
2021/05/10 11:47:10;;;;;;;6.72;3.53;;;16.00;83.80;;;;;;5046838;28;19962;-85
2021/05/10 11:49:42;;;;;;;6.50;4.72;;;15.80;83.70;;;;;;5044756;28;20033;-85
2021/05/10 11:52:09;;;;;;;7.40;4.40;;;15.70;85.50;;;;;;5037875;28;20132;-85
2021/05/10 11:54:38;;;;;;;6.28;4.43;;;15.80;85.40;;;;;;5037745;28;20029;-86
2021/05/10 11:57:05;;;;;;;8.18;4.50;;;15.90;85.00;;;;;;5036628;28;20105;-85
2021/05/10 11:59:43;;;;;;;10.65;3.80;;;16.00;85.30;;;;;;5036891;28;20158;-85
2021/05/10 12:02:08;;;;;;;5.72;3.30;;;16.20;85.30;;;;;;5035460;28;20060;-85
2021/05/10 12:04:35;;;;;;;6.03;3.88;;;16.30;83.80;;;;;;5034273;28;20022;-84
2021/05/10 12:07:01;;;;;;;5.72;3.83;;;16.50;83.00;;;;;;5035131;28;20029;-85
2021/05/10 12:09:42;;;;;;;6.15;4.43;;;16.70;81.50;;;;;;5035565;28;20095;-83
2021/05/10 12:12:14;;;;;;;6.47;3.55;;;16.90;80.10;;;;;;5035055;28;20022;-82
2021/05/10 12:14:52;;;;;;;6.25;3.60;;;17.20;80.10;;;;;;5033996;28;20207;-83
2021/05/10 12:17:20;;;;;;;4.43;3.40;;;17.60;79.80;;;;;;5034236;28;20022;-84
2021/05/10 12:20:23;;;;;;;9.02;3.38;;;17.80;77.00;;;;;;5035415;28;20076;-83
2021/05/10 12:22:54;;;;;;;6.50;3.67;;;18.00;74.90;;;;;;5035812;28;20026;-84
2021/05/10 12:25:31;;;;;;;5.55;3.33;;;18.20;75.40;;;;;;5044155;28;20033;-81
2021/05/10 12:28:10;;;;;;;4.75;2.60;;;18.60;73.90;;;;;;5036198;28;20018;-86
2021/05/10 12:30:38;;;;;;;5.32;3.28;;;19.00;72.60;;;;;;5038673;28;20044;-83
2021/05/10 12:33:07;;;;;;;6.55;3.13;;;19.30;70.50;;;;;;5053957;28;20101;-84
2021/05/10 12:35:35;;;;;;;5.10;2.80;;;19.70;69.30;;;;;;5058456;28;20081;-84
2021/05/10 12:38:04;;;;;;;6.72;3.50;;;20.00;68.60;;;;;;5071178;28;20025;-86
2021/05/10 12:40:50;;;;;;;5.45;3.50;;;20.40;67.60;;;;;;5043612;28;20040;-87
2021/05/10 12:43:18;;;;;;;15.40;4.70;;;20.50;65.30;;;;;;5042208;28;20036;-85
2021/05/10 12:46:04;;;;;;;5.55;3.95;;;20.30;65.40;;;;;;5060053;28;20081;-86
2021/05/10 12:48:36;;;;;;;5.57;2.80;;;20.00;66.30;;;;;;5059052;28;20521;-85
2021/05/10 12:51:11;;;;;;;5.72;3.92;;;19.80;67.30;;;;;;5058707;28;20079;-85
2021/05/10 12:53:38;;;;;;;4.93;2.78;;;19.80;67.50;;;;;;5058807;28;20468;-86
2021/05/10 12:56:12;;;;;;;5.72;2.90;;;19.80;68.20;;;;;;5057688;28;20100;-86
2021/05/10 12:58:43;;;;;;;4.75;2.97;;;20.20;67.70;;;;;;5059472;28;20043;-86
2021/05/10 13:01:22;;;;;;;7.47;3.80;;;20.60;67.50;;;;;;5065709;28;20037;-85
2021/05/10 13:03:59;;;;;;;8.50;4.95;;;21.00;65.80;;;;;;5062297;28;20115;-88
2021/05/10 13:06:29;;;;;;;4.57;2.13;;;21.20;61.90;;;;;;5059839;28;20017;-88